sensor_id;sensor_type;location;lat;lon;timestamp;P1;durP1;ratioP1;P2;durP2;ratioP2
34836;SDS011;21053;50.848;4.652;2024-02-21T00:00:51;129.93;;;118.97;;
34836;SDS011;21053;50.848;4.652;2024-02-21T00:03:19;126.95;;;116.25;;
34836;SDS011;21053;50.848;4.652;2024-02-21T00:05:48;134.40;;;123.32;;
34836;SDS011;21053;50.848;4.652;2024-02-21T00:08:14;143.25;;;131.43;;
34836;SDS011;21053;50.848;4.652;2024-02-21T00:10:44;122.28;;;112.22;;
34836;SDS011;21053;50.848;4.652;2024-02-21T00:15:41;133.45;;;122.10;;
34836;SDS011;21053;50.848;4.652;2024-02-21T00:20:37;118.57;;;108.80;;
34836;SDS011;21053;50.848;4.652;2024-02-21T00:23:04;139.93;;;128.32;;
34836;SDS011;21053;50.848;4.652;2024-02-21T00:25:33;138.95;;;127.40;;
34836;SDS011;21053;50.848;4.652;2024-02-21T00:30:30;127.72;;;117.43;;
34836;SDS011;21053;50.848;4.652;2024-02-21T00:35:25;117.97;;;107.75;;
34836;SDS011;21053;50.848;4.652;2024-02-21T00:40:25;144.48;;;132.50;;
34836;SDS011;21053;50.848;4.652;2024-02-21T00:42:53;97.25;;;89.18;;
34836;SDS011;21053;50.848;4.652;2024-02-21T00:45:19;109.95;;;100.22;;
34836;SDS011;21053;50.848;4.652;2024-02-21T00:47:47;139.00;;;127.55;;
34836;SDS011;21053;50.848;4.652;2024-02-21T00:50:16;111.00;;;101.75;;
34836;SDS011;21053;50.848;4.652;2024-02-21T00:55:13;138.35;;;126.47;;
34836;SDS011;21053;50.848;4.652;2024-02-21T00:57:40;115.05;;;105.70;;
34836;SDS011;21053;50.848;4.652;2024-02-21T01:00:07;135.73;;;124.68;;
34836;SDS011;21053;50.848;4.652;2024-02-21T01:02:36;104.85;;;95.90;;
34836;SDS011;21053;50.848;4.652;2024-02-21T01:05:02;126.32;;;115.97;;
34836;SDS011;21053;50.848;4.652;2024-02-21T01:07:31;128.30;;;117.15;;
34836;SDS011;21053;50.848;4.652;2024-02-21T01:12:26;136.23;;;125.03;;
34836;SDS011;21053;50.848;4.652;2024-02-21T01:17:24;126.78;;;116.40;;
34836;SDS011;21053;50.848;4.652;2024-02-21T01:22:21;122.65;;;112.43;;
34836;SDS011;21053;50.848;4.652;2024-02-21T01:24:48;126.60;;;115.40;;
34836;SDS011;21053;50.848;4.652;2024-02-21T01:27:17;129.88;;;118.43;;
34836;SDS011;21053;50.848;4.652;2024-02-21T01:32:15;130.85;;;119.68;;
34836;SDS011;21053;50.848;4.652;2024-02-21T01:34:41;115.28;;;105.60;;
34836;SDS011;21053;50.848;4.652;2024-02-21T01:37:07;132.10;;;121.30;;
34836;SDS011;21053;50.848;4.652;2024-02-21T01:39:36;118.20;;;108.32;;
34836;SDS011;21053;50.848;4.652;2024-02-21T01:42:05;122.38;;;112.13;;
34836;SDS011;21053;50.848;4.652;2024-02-21T01:44:32;152.40;;;140.00;;
34836;SDS011;21053;50.848;4.652;2024-02-21T01:46:58;129.82;;;119.40;;
34836;SDS011;21053;50.848;4.652;2024-02-21T01:49:23;142.52;;;130.55;;
34836;SDS011;21053;50.848;4.652;2024-02-21T01:54:22;137.43;;;126.38;;
34836;SDS011;21053;50.848;4.652;2024-02-21T01:56:49;131.02;;;120.65;;
34836;SDS011;21053;50.848;4.652;2024-02-21T01:59:18;160.15;;;146.48;;
34836;SDS011;21053;50.848;4.652;2024-02-21T02:01:48;146.90;;;134.18;;
34836;SDS011;21053;50.848;4.652;2024-02-21T02:04:15;141.77;;;130.10;;
34836;SDS011;21053;50.848;4.652;2024-02-21T02:06:43;142.95;;;131.35;;
34836;SDS011;21053;50.848;4.652;2024-02-21T02:09:12;156.70;;;144.07;;
34836;SDS011;21053;50.848;4.652;2024-02-21T02:11:39;165.40;;;151.98;;
34836;SDS011;21053;50.848;4.652;2024-02-21T02:14:06;159.10;;;145.35;;
34836;SDS011;21053;50.848;4.652;2024-02-21T02:16:34;152.43;;;139.63;;
34836;SDS011;21053;50.848;4.652;2024-02-21T02:19:00;155.68;;;142.93;;
34836;SDS011;21053;50.848;4.652;2024-02-21T02:21:32;140.32;;;128.73;;
34836;SDS011;21053;50.848;4.652;2024-02-21T02:24:09;151.45;;;139.40;;
34836;SDS011;21053;50.848;4.652;2024-02-21T02:26:36;143.82;;;131.98;;
34836;SDS011;21053;50.848;4.652;2024-02-21T02:29:02;146.40;;;133.15;;
34836;SDS011;21053;50.848;4.652;2024-02-21T02:31:28;159.18;;;146.40;;
34836;SDS011;21053;50.848;4.652;2024-02-21T02:33:54;154.43;;;141.77;;
34836;SDS011;21053;50.848;4.652;2024-02-21T02:36:23;136.43;;;123.03;;
34836;SDS011;21053;50.848;4.652;2024-02-21T02:38:50;136.75;;;124.10;;
34836;SDS011;21053;50.848;4.652;2024-02-21T02:41:19;130.75;;;120.10;;
34836;SDS011;21053;50.848;4.652;2024-02-21T02:43:44;139.60;;;128.10;;
34836;SDS011;21053;50.848;4.652;2024-02-21T02:46:11;148.15;;;136.07;;
34836;SDS011;21053;50.848;4.652;2024-02-21T02:48:36;142.27;;;129.90;;
34836;SDS011;21053;50.848;4.652;2024-02-21T02:51:04;134.27;;;123.45;;
34836;SDS011;21053;50.848;4.652;2024-02-21T02:53:30;134.65;;;123.80;;
34836;SDS011;21053;50.848;4.652;2024-02-21T02:55:57;162.45;;;149.35;;
34836;SDS011;21053;50.848;4.652;2024-02-21T02:58:23;144.82;;;133.10;;
34836;SDS011;21053;50.848;4.652;2024-02-21T03:00:50;148.30;;;135.48;;
34836;SDS011;21053;50.848;4.652;2024-02-21T03:03:17;141.82;;;130.35;;
34836;SDS011;21053;50.848;4.652;2024-02-21T03:05:45;143.10;;;131.18;;
34836;SDS011;21053;50.848;4.652;2024-02-21T03:08:17;125.68;;;115.35;;
34836;SDS011;21053;50.848;4.652;2024-02-21T03:10:42;133.35;;;122.70;;
34836;SDS011;21053;50.848;4.652;2024-02-21T03:13:08;135.98;;;125.05;;
34836;SDS011;21053;50.848;4.652;2024-02-21T03:15:34;119.05;;;106.35;;
34836;SDS011;21053;50.848;4.652;2024-02-21T03:22:59;131.98;;;121.10;;
34836;SDS011;21053;50.848;4.652;2024-02-21T03:25:25;127.72;;;117.18;;
34836;SDS011;21053;50.848;4.652;2024-02-21T03:27:51;128.68;;;116.18;;
34836;SDS011;21053;50.848;4.652;2024-02-21T03:30:17;126.07;;;114.85;;
34836;SDS011;21053;50.848;4.652;2024-02-21T03:32:53;139.73;;;128.45;;
34836;SDS011;21053;50.848;4.652;2024-02-21T03:35:19;121.90;;;111.18;;
34836;SDS011;21053;50.848;4.652;2024-02-21T03:37:48;125.68;;;115.18;;
34836;SDS011;21053;50.848;4.652;2024-02-21T03:40:16;130.20;;;119.40;;
34836;SDS011;21053;50.848;4.652;2024-02-21T03:42:44;139.30;;;127.93;;
34836;SDS011;21053;50.848;4.652;2024-02-21T03:45:12;140.32;;;128.52;;
34836;SDS011;21053;50.848;4.652;2024-02-21T03:47:38;132.82;;;121.93;;
34836;SDS011;21053;50.848;4.652;2024-02-21T03:50:10;137.95;;;126.38;;
34836;SDS011;21053;50.848;4.652;2024-02-21T03:52:37;145.65;;;133.50;;
34836;SDS011;21053;50.848;4.652;2024-02-21T04:00:11;165.25;;;151.80;;
34836;SDS011;21053;50.848;4.652;2024-02-21T04:02:40;158.98;;;145.98;;
34836;SDS011;21053;50.848;4.652;2024-02-21T04:05:09;145.30;;;133.18;;
34836;SDS011;21053;50.848;4.652;2024-02-21T04:07:39;139.35;;;127.53;;
34836;SDS011;21053;50.848;4.652;2024-02-21T04:12:37;135.82;;;124.97;;
34836;SDS011;21053;50.848;4.652;2024-02-21T04:15:04;143.85;;;132.40;;
34836;SDS011;21053;50.848;4.652;2024-02-21T04:17:34;140.55;;;129.10;;
34836;SDS011;21053;50.848;4.652;2024-02-21T04:22:36;143.63;;;131.32;;
34836;SDS011;21053;50.848;4.652;2024-02-21T04:25:05;142.60;;;130.55;;
34836;SDS011;21053;50.848;4.652;2024-02-21T04:27:33;146.63;;;134.57;;
34836;SDS011;21053;50.848;4.652;2024-02-21T04:30:01;127.85;;;117.03;;
34836;SDS011;21053;50.848;4.652;2024-02-21T04:32:28;164.82;;;151.40;;
34836;SDS011;21053;50.848;4.652;2024-02-21T04:37:35;133.18;;;121.85;;
34836;SDS011;21053;50.848;4.652;2024-02-21T04:40:04;149.48;;;136.57;;
34836;SDS011;21053;50.848;4.652;2024-02-21T04:42:33;161.23;;;147.77;;
34836;SDS011;21053;50.848;4.652;2024-02-21T04:47:31;153.02;;;139.15;;
34836;SDS011;21053;50.848;4.652;2024-02-21T04:49:57;142.63;;;130.90;;
34836;SDS011;21053;50.848;4.652;2024-02-21T04:52:24;134.77;;;123.43;;
34836;SDS011;21053;50.848;4.652;2024-02-21T04:54:53;178.25;;;163.68;;
34836;SDS011;21053;50.848;4.652;2024-02-21T04:57:21;138.52;;;126.85;;
34836;SDS011;21053;50.848;4.652;2024-02-21T04:59:48;187.68;;;172.07;;
34836;SDS011;21053;50.848;4.652;2024-02-21T05:02:15;162.60;;;148.63;;
34836;SDS011;21053;50.848;4.652;2024-02-21T05:04:42;167.80;;;153.32;;
34836;SDS011;21053;50.848;4.652;2024-02-21T05:07:11;161.60;;;148.07;;
34836;SDS011;21053;50.848;4.652;2024-02-21T05:09:38;164.77;;;150.60;;
34836;SDS011;21053;50.848;4.652;2024-02-21T05:12:04;129.20;;;118.13;;
34836;SDS011;21053;50.848;4.652;2024-02-21T05:17:02;154.75;;;140.52;;
34836;SDS011;21053;50.848;4.652;2024-02-21T05:19:31;172.98;;;158.60;;
34836;SDS011;21053;50.848;4.652;2024-02-21T05:24:28;155.18;;;141.02;;
34836;SDS011;21053;50.848;4.652;2024-02-21T05:29:24;155.70;;;142.20;;
34836;SDS011;21053;50.848;4.652;2024-02-21T05:34:22;151.95;;;139.38;;
34836;SDS011;21053;50.848;4.652;2024-02-21T05:36:51;123.63;;;112.82;;
34836;SDS011;21053;50.848;4.652;2024-02-21T05:39:17;172.48;;;158.20;;
34836;SDS011;21053;50.848;4.652;2024-02-21T05:41:46;166.00;;;152.50;;
34836;SDS011;21053;50.848;4.652;2024-02-21T05:44:15;151.88;;;138.75;;
34836;SDS011;21053;50.848;4.652;2024-02-21T05:46:44;177.60;;;163.10;;
34836;SDS011;21053;50.848;4.652;2024-02-21T05:49:11;137.50;;;126.50;;
34836;SDS011;21053;50.848;4.652;2024-02-21T05:51:40;142.48;;;130.85;;
34836;SDS011;21053;50.848;4.652;2024-02-21T05:59:06;131.88;;;121.03;;
34836;SDS011;21053;50.848;4.652;2024-02-21T06:01:32;151.73;;;138.85;;
34836;SDS011;21053;50.848;4.652;2024-02-21T06:04:00;136.15;;;124.75;;
34836;SDS011;21053;50.848;4.652;2024-02-21T06:06:30;150.85;;;138.43;;
34836;SDS011;21053;50.848;4.652;2024-02-21T06:08:57;153.85;;;140.82;;
34836;SDS011;21053;50.848;4.652;2024-02-21T06:11:25;159.18;;;146.30;;
34836;SDS011;21053;50.848;4.652;2024-02-21T06:16:35;158.02;;;145.05;;
34836;SDS011;21053;50.848;4.652;2024-02-21T06:19:01;125.22;;;114.80;;
34836;SDS011;21053;50.848;4.652;2024-02-21T06:21:31;139.85;;;128.43;;
34836;SDS011;21053;50.848;4.652;2024-02-21T06:24:03;133.48;;;122.63;;
34836;SDS011;21053;50.848;4.652;2024-02-21T06:26:30;131.90;;;120.97;;
34836;SDS011;21053;50.848;4.652;2024-02-21T06:31:27;118.40;;;108.55;;
34836;SDS011;21053;50.848;4.652;2024-02-21T06:36:23;134.95;;;124.07;;
34836;SDS011;21053;50.848;4.652;2024-02-21T06:41:21;149.02;;;136.52;;
34836;SDS011;21053;50.848;4.652;2024-02-21T06:43:48;149.75;;;137.55;;
34836;SDS011;21053;50.848;4.652;2024-02-21T06:48:56;146.75;;;134.48;;
34836;SDS011;21053;50.848;4.652;2024-02-21T06:51:24;120.10;;;110.03;;
34836;SDS011;21053;50.848;4.652;2024-02-21T06:53:50;136.05;;;122.88;;
34836;SDS011;21053;50.848;4.652;2024-02-21T06:56:24;159.25;;;145.80;;
34836;SDS011;21053;50.848;4.652;2024-02-21T06:58:57;114.03;;;104.38;;
34836;SDS011;21053;50.848;4.652;2024-02-21T07:03:58;132.32;;;121.30;;
34836;SDS011;21053;50.848;4.652;2024-02-21T07:08:55;172.90;;;158.75;;
34836;SDS011;21053;50.848;4.652;2024-02-21T07:11:23;163.82;;;149.63;;
34836;SDS011;21053;50.848;4.652;2024-02-21T07:13:52;145.40;;;133.07;;
34836;SDS011;21053;50.848;4.652;2024-02-21T07:16:19;151.13;;;138.73;;
34836;SDS011;21053;50.848;4.652;2024-02-21T07:18:47;153.90;;;141.15;;
34836;SDS011;21053;50.848;4.652;2024-02-21T07:21:15;157.35;;;144.57;;
34836;SDS011;21053;50.848;4.652;2024-02-21T07:23:41;150.38;;;138.20;;
34836;SDS011;21053;50.848;4.652;2024-02-21T07:26:13;136.85;;;125.78;;
34836;SDS011;21053;50.848;4.652;2024-02-21T07:28:39;147.93;;;135.73;;
34836;SDS011;21053;50.848;4.652;2024-02-21T07:31:08;155.60;;;143.20;;
34836;SDS011;21053;50.848;4.652;2024-02-21T07:33:37;139.52;;;127.68;;
34836;SDS011;21053;50.848;4.652;2024-02-21T07:36:07;130.10;;;119.60;;
34836;SDS011;21053;50.848;4.652;2024-02-21T07:38:36;127.65;;;117.05;;
34836;SDS011;21053;50.848;4.652;2024-02-21T07:41:08;122.22;;;111.72;;
34836;SDS011;21053;50.848;4.652;2024-02-21T07:43:37;146.55;;;134.25;;
34836;SDS011;21053;50.848;4.652;2024-02-21T07:46:04;131.32;;;120.13;;
34836;SDS011;21053;50.848;4.652;2024-02-21T07:48:33;150.48;;;138.02;;
34836;SDS011;21053;50.848;4.652;2024-02-21T07:51:02;126.05;;;115.72;;
34836;SDS011;21053;50.848;4.652;2024-02-21T07:53:28;120.72;;;110.70;;
34836;SDS011;21053;50.848;4.652;2024-02-21T07:55:55;142.25;;;130.55;;
34836;SDS011;21053;50.848;4.652;2024-02-21T07:58:21;125.35;;;110.05;;
34836;SDS011;21053;50.848;4.652;2024-02-21T08:03:16;150.68;;;138.68;;
34836;SDS011;21053;50.848;4.652;2024-02-21T08:05:43;150.57;;;138.40;;
34836;SDS011;21053;50.848;4.652;2024-02-21T08:10:44;185.43;;;170.45;;
34836;SDS011;21053;50.848;4.652;2024-02-21T08:13:13;193.38;;;177.65;;
34836;SDS011;21053;50.848;4.652;2024-02-21T08:15:41;169.90;;;156.13;;
34836;SDS011;21053;50.848;4.652;2024-02-21T08:18:10;209.10;;;192.23;;
34836;SDS011;21053;50.848;4.652;2024-02-21T08:20:42;165.35;;;152.07;;
34836;SDS011;21053;50.848;4.652;2024-02-21T08:23:08;165.15;;;151.70;;
34836;SDS011;21053;50.848;4.652;2024-02-21T08:28:04;167.73;;;153.38;;
34836;SDS011;21053;50.848;4.652;2024-02-21T08:30:31;188.50;;;173.45;;
34836;SDS011;21053;50.848;4.652;2024-02-21T08:33:00;177.05;;;162.82;;
34836;SDS011;21053;50.848;4.652;2024-02-21T08:35:26;175.68;;;161.70;;
34836;SDS011;21053;50.848;4.652;2024-02-21T08:37:52;194.50;;;178.73;;
34836;SDS011;21053;50.848;4.652;2024-02-21T08:40:20;204.25;;;187.10;;
34836;SDS011;21053;50.848;4.652;2024-02-21T08:48:21;155.07;;;142.55;;
34836;SDS011;21053;50.848;4.652;2024-02-21T08:53:18;148.15;;;136.02;;
34836;SDS011;21053;50.848;4.652;2024-02-21T08:55:50;164.15;;;150.43;;
34836;SDS011;21053;50.848;4.652;2024-02-21T08:58:17;159.02;;;146.20;;
34836;SDS011;21053;50.848;4.652;2024-02-21T09:08:14;210.70;;;193.05;;
34836;SDS011;21053;50.848;4.652;2024-02-21T09:13:08;174.57;;;160.13;;
34836;SDS011;21053;50.848;4.652;2024-02-21T09:18:04;213.73;;;195.75;;
34836;SDS011;21053;50.848;4.652;2024-02-21T09:20:31;184.35;;;169.00;;
34836;SDS011;21053;50.848;4.652;2024-02-21T09:25:26;218.73;;;200.52;;
34836;SDS011;21053;50.848;4.652;2024-02-21T09:27:53;193.32;;;177.07;;
34836;SDS011;21053;50.848;4.652;2024-02-21T09:30:21;266.30;;;243.80;;
34836;SDS011;21053;50.848;4.652;2024-02-21T09:32:47;209.52;;;191.80;;
34836;SDS011;21053;50.848;4.652;2024-02-21T09:35:16;219.93;;;201.35;;
34836;SDS011;21053;50.848;4.652;2024-02-21T09:50:54;183.45;;;167.85;;
34836;SDS011;21053;50.848;4.652;2024-02-21T09:53:21;213.40;;;195.18;;
34836;SDS011;21053;50.848;4.652;2024-02-21T09:55:51;201.35;;;183.73;;
34836;SDS011;21053;50.848;4.652;2024-02-21T09:58:18;160.65;;;147.00;;
34836;SDS011;21053;50.848;4.652;2024-02-21T10:00:45;189.20;;;172.98;;
34836;SDS011;21053;50.848;4.652;2024-02-21T10:03:11;191.13;;;174.13;;
34836;SDS011;21053;50.848;4.652;2024-02-21T10:05:38;147.23;;;134.35;;
34836;SDS011;21053;50.848;4.652;2024-02-21T10:08:05;163.98;;;149.45;;
34836;SDS011;21053;50.848;4.652;2024-02-21T10:10:43;164.65;;;149.07;;
34836;SDS011;21053;50.848;4.652;2024-02-21T10:16:07;169.85;;;154.77;;
34836;SDS011;21053;50.848;4.652;2024-02-21T10:18:35;180.50;;;165.10;;
34836;SDS011;21053;50.848;4.652;2024-02-21T10:21:02;220.52;;;201.73;;
34836;SDS011;21053;50.848;4.652;2024-02-21T10:26:30;159.18;;;145.35;;
34836;SDS011;21053;50.848;4.652;2024-02-21T10:28:59;144.13;;;131.75;;
34836;SDS011;21053;50.848;4.652;2024-02-21T10:31:30;151.10;;;137.80;;
34836;SDS011;21053;50.848;4.652;2024-02-21T10:36:30;148.55;;;136.32;;
34836;SDS011;21053;50.848;4.652;2024-02-21T10:38:56;128.85;;;117.90;;
34836;SDS011;21053;50.848;4.652;2024-02-21T10:41:24;121.78;;;111.47;;
34836;SDS011;21053;50.848;4.652;2024-02-21T10:43:50;155.23;;;142.48;;
34836;SDS011;21053;50.848;4.652;2024-02-21T10:46:21;140.95;;;128.18;;
34836;SDS011;21053;50.848;4.652;2024-02-21T10:48:57;143.95;;;130.35;;
34836;SDS011;21053;50.848;4.652;2024-02-21T10:57:21;174.60;;;158.75;;
34836;SDS011;21053;50.848;4.652;2024-02-21T10:59:48;161.80;;;147.05;;
34836;SDS011;21053;50.848;4.652;2024-02-21T11:02:16;157.55;;;144.27;;
34836;SDS011;21053;50.848;4.652;2024-02-21T11:04:43;163.60;;;149.65;;
34836;SDS011;21053;50.848;4.652;2024-02-21T11:07:10;175.25;;;160.23;;
34836;SDS011;21053;50.848;4.652;2024-02-21T11:09:36;166.13;;;151.05;;
34836;SDS011;21053;50.848;4.652;2024-02-21T11:12:06;148.95;;;136.23;;
34836;SDS011;21053;50.848;4.652;2024-02-21T11:14:37;165.02;;;151.10;;
34836;SDS011;21053;50.848;4.652;2024-02-21T11:17:20;185.60;;;169.55;;
34836;SDS011;21053;50.848;4.652;2024-02-21T11:19:52;169.93;;;155.02;;
34836;SDS011;21053;50.848;4.652;2024-02-21T11:22:18;208.15;;;190.45;;
34836;SDS011;21053;50.848;4.652;2024-02-21T11:24:47;187.52;;;170.27;;
34836;SDS011;21053;50.848;4.652;2024-02-21T11:27:15;137.50;;;125.28;;
34836;SDS011;21053;50.848;4.652;2024-02-21T11:29:54;193.95;;;177.27;;
34836;SDS011;21053;50.848;4.652;2024-02-21T11:32:22;163.57;;;149.38;;
34836;SDS011;21053;50.848;4.652;2024-02-21T11:34:59;194.05;;;177.57;;
34836;SDS011;21053;50.848;4.652;2024-02-21T11:37:34;191.95;;;175.13;;
34836;SDS011;21053;50.848;4.652;2024-02-21T11:40:10;203.68;;;185.52;;
34836;SDS011;21053;50.848;4.652;2024-02-21T11:42:39;198.48;;;180.63;;
34836;SDS011;21053;50.848;4.652;2024-02-21T11:45:06;212.73;;;194.13;;
34836;SDS011;21053;50.848;4.652;2024-02-21T11:47:34;210.23;;;191.38;;
34836;SDS011;21053;50.848;4.652;2024-02-21T11:50:04;203.32;;;185.38;;
34836;SDS011;21053;50.848;4.652;2024-02-21T11:54:14;242.32;;;220.55;;
34836;SDS011;21053;50.848;4.652;2024-02-21T11:56:43;210.93;;;192.38;;
34836;SDS011;21053;50.848;4.652;2024-02-21T11:59:09;199.02;;;181.50;;
34836;SDS011;21053;50.848;4.652;2024-02-21T12:01:34;184.23;;;168.07;;
34836;SDS011;21053;50.848;4.652;2024-02-21T12:04:03;220.52;;;201.85;;
34836;SDS011;21053;50.848;4.652;2024-02-21T12:06:32;221.23;;;202.15;;
34836;SDS011;21053;50.848;4.652;2024-02-21T12:08:58;203.38;;;185.55;;
34836;SDS011;21053;50.848;4.652;2024-02-21T12:11:24;196.80;;;178.73;;
34836;SDS011;21053;50.848;4.652;2024-02-21T12:14:05;205.75;;;187.68;;
34836;SDS011;21053;50.848;4.652;2024-02-21T12:16:33;274.30;;;250.27;;
34836;SDS011;21053;50.848;4.652;2024-02-21T12:19:00;225.60;;;204.98;;
34836;SDS011;21053;50.848;4.652;2024-02-21T12:21:33;265.40;;;242.35;;
34836;SDS011;21053;50.848;4.652;2024-02-21T12:24:21;248.25;;;226.55;;
34836;SDS011;21053;50.848;4.652;2024-02-21T12:26:51;216.73;;;197.20;;
34836;SDS011;21053;50.848;4.652;2024-02-21T12:31:47;253.13;;;229.95;;
34836;SDS011;21053;50.848;4.652;2024-02-21T12:34:16;230.00;;;209.70;;
34836;SDS011;21053;50.848;4.652;2024-02-21T12:36:45;211.57;;;192.93;;
34836;SDS011;21053;50.848;4.652;2024-02-21T12:39:15;217.57;;;198.27;;
34836;SDS011;21053;50.848;4.652;2024-02-21T12:41:44;213.75;;;194.85;;
34836;SDS011;21053;50.848;4.652;2024-02-21T12:44:10;232.75;;;212.35;;
34836;SDS011;21053;50.848;4.652;2024-02-21T12:46:36;217.88;;;198.85;;
34836;SDS011;21053;50.848;4.652;2024-02-21T12:49:04;246.95;;;224.55;;
34836;SDS011;21053;50.848;4.652;2024-02-21T12:51:31;254.57;;;231.38;;
34836;SDS011;21053;50.848;4.652;2024-02-21T12:53:59;239.63;;;218.95;;
34836;SDS011;21053;50.848;4.652;2024-02-21T12:56:26;256.13;;;233.57;;
34836;SDS011;21053;50.848;4.652;2024-02-21T12:58:52;259.83;;;237.15;;
34836;SDS011;21053;50.848;4.652;2024-02-21T13:03:48;252.13;;;229.35;;
34836;SDS011;21053;50.848;4.652;2024-02-21T13:06:15;234.63;;;213.50;;
34836;SDS011;21053;50.848;4.652;2024-02-21T13:08:43;252.43;;;230.65;;
34836;SDS011;21053;50.848;4.652;2024-02-21T13:12:16;284.60;;;259.88;;
34836;SDS011;21053;50.848;4.652;2024-02-21T13:17:12;238.80;;;217.95;;
34836;SDS011;21053;50.848;4.652;2024-02-21T13:19:42;304.63;;;278.10;;
34836;SDS011;21053;50.848;4.652;2024-02-21T13:22:11;311.75;;;284.48;;
34836;SDS011;21053;50.848;4.652;2024-02-21T13:24:38;298.02;;;271.92;;
34836;SDS011;21053;50.848;4.652;2024-02-21T13:27:04;269.20;;;244.80;;
34836;SDS011;21053;50.848;4.652;2024-02-21T13:29:31;287.20;;;261.60;;
34836;SDS011;21053;50.848;4.652;2024-02-21T13:31:58;305.75;;;278.77;;
34836;SDS011;21053;50.848;4.652;2024-02-21T13:34:27;311.95;;;284.35;;
34836;SDS011;21053;50.848;4.652;2024-02-21T13:36:53;314.42;;;286.40;;
34836;SDS011;21053;50.848;4.652;2024-02-21T13:39:20;328.15;;;299.55;;
34836;SDS011;21053;50.848;4.652;2024-02-21T13:44:18;306.20;;;279.83;;
34836;SDS011;21053;50.848;4.652;2024-02-21T13:46:48;329.33;;;301.02;;
34836;SDS011;21053;50.848;4.652;2024-02-21T13:49:15;352.48;;;322.08;;
34836;SDS011;21053;50.848;4.652;2024-02-21T13:51:53;329.50;;;300.83;;
34836;SDS011;21053;50.848;4.652;2024-02-21T13:57:16;310.30;;;282.80;;
34836;SDS011;21053;50.848;4.652;2024-02-21T13:59:46;312.98;;;285.92;;
34836;SDS011;21053;50.848;4.652;2024-02-21T14:02:22;296.77;;;270.45;;
34836;SDS011;21053;50.848;4.652;2024-02-21T14:04:58;285.52;;;259.42;;
34836;SDS011;21053;50.848;4.652;2024-02-21T14:07:27;282.63;;;257.23;;
34836;SDS011;21053;50.848;4.652;2024-02-21T14:10:05;300.40;;;273.48;;
34836;SDS011;21053;50.848;4.652;2024-02-21T14:12:36;274.80;;;250.77;;
34836;SDS011;21053;50.848;4.652;2024-02-21T14:15:07;271.55;;;247.40;;
34836;SDS011;21053;50.848;4.652;2024-02-21T14:17:38;253.77;;;230.25;;
34836;SDS011;21053;50.848;4.652;2024-02-21T14:20:13;253.90;;;231.23;;
34836;SDS011;21053;50.848;4.652;2024-02-21T14:23:05;285.88;;;259.85;;
34836;SDS011;21053;50.848;4.652;2024-02-21T14:25:33;254.13;;;230.82;;
34836;SDS011;21053;50.848;4.652;2024-02-21T14:28:48;329.85;;;299.27;;
34836;SDS011;21053;50.848;4.652;2024-02-21T14:31:16;282.67;;;256.33;;
34836;SDS011;21053;50.848;4.652;2024-02-21T14:33:42;242.93;;;220.60;;
34836;SDS011;21053;50.848;4.652;2024-02-21T14:36:09;265.50;;;241.18;;
34836;SDS011;21053;50.848;4.652;2024-02-21T14:38:37;243.27;;;220.73;;
34836;SDS011;21053;50.848;4.652;2024-02-21T14:41:03;225.93;;;204.82;;
34836;SDS011;21053;50.848;4.652;2024-02-21T14:43:29;215.65;;;196.15;;
34836;SDS011;21053;50.848;4.652;2024-02-21T14:45:54;179.90;;;163.75;;
34836;SDS011;21053;50.848;4.652;2024-02-21T14:48:26;161.88;;;147.45;;
34836;SDS011;21053;50.848;4.652;2024-02-21T14:50:54;170.93;;;155.40;;
34836;SDS011;21053;50.848;4.652;2024-02-21T14:53:22;179.02;;;163.45;;
34836;SDS011;21053;50.848;4.652;2024-02-21T14:58:18;153.73;;;139.65;;
34836;SDS011;21053;50.848;4.652;2024-02-21T15:00:46;191.38;;;174.75;;
34836;SDS011;21053;50.848;4.652;2024-02-21T15:03:18;161.02;;;147.40;;
34836;SDS011;21053;50.848;4.652;2024-02-21T15:10:44;140.02;;;128.02;;
34836;SDS011;21053;50.848;4.652;2024-02-21T15:13:13;150.52;;;137.43;;
34836;SDS011;21053;50.848;4.652;2024-02-21T15:15:39;156.68;;;143.05;;
34836;SDS011;21053;50.848;4.652;2024-02-21T15:18:17;134.90;;;122.65;;
34836;SDS011;21053;50.848;4.652;2024-02-21T15:20:45;125.18;;;113.88;;
34836;SDS011;21053;50.848;4.652;2024-02-21T15:23:14;140.02;;;127.88;;
34836;SDS011;21053;50.848;4.652;2024-02-21T15:28:12;144.98;;;132.85;;
34836;SDS011;21053;50.848;4.652;2024-02-21T15:33:09;181.73;;;166.38;;
34836;SDS011;21053;50.848;4.652;2024-02-21T15:35:36;168.63;;;154.43;;
34836;SDS011;21053;50.848;4.652;2024-02-21T15:38:02;149.77;;;137.18;;
34836;SDS011;21053;50.848;4.652;2024-02-21T15:40:28;154.05;;;140.95;;
34836;SDS011;21053;50.848;4.652;2024-02-21T15:42:56;148.95;;;136.55;;
34836;SDS011;21053;50.848;4.652;2024-02-21T15:45:25;153.38;;;140.43;;
34836;SDS011;21053;50.848;4.652;2024-02-21T15:50:20;133.57;;;122.50;;
34836;SDS011;21053;50.848;4.652;2024-02-21T15:52:46;143.65;;;131.60;;
34836;SDS011;21053;50.848;4.652;2024-02-21T15:55:12;147.88;;;135.35;;
34836;SDS011;21053;50.848;4.652;2024-02-21T15:57:40;133.40;;;122.10;;
34836;SDS011;21053;50.848;4.652;2024-02-21T16:00:11;142.93;;;130.88;;
34836;SDS011;21053;50.848;4.652;2024-02-21T16:02:40;136.13;;;125.07;;
34836;SDS011;21053;50.848;4.652;2024-02-21T16:05:11;129.65;;;118.60;;
34836;SDS011;21053;50.848;4.652;2024-02-21T16:07:37;148.35;;;135.55;;
34836;SDS011;21053;50.848;4.652;2024-02-21T16:10:03;146.32;;;133.68;;
34836;SDS011;21053;50.848;4.652;2024-02-21T16:12:33;124.15;;;113.93;;
34836;SDS011;21053;50.848;4.652;2024-02-21T16:15:02;149.93;;;137.40;;
34836;SDS011;21053;50.848;4.652;2024-02-21T16:19:59;119.28;;;109.43;;
34836;SDS011;21053;50.848;4.652;2024-02-21T16:22:27;134.25;;;123.18;;
34836;SDS011;21053;50.848;4.652;2024-02-21T16:24:55;158.55;;;145.65;;
34836;SDS011;21053;50.848;4.652;2024-02-21T16:27:21;144.75;;;132.52;;
34836;SDS011;21053;50.848;4.652;2024-02-21T16:32:16;129.13;;;118.55;;
34836;SDS011;21053;50.848;4.652;2024-02-21T16:37:12;141.30;;;129.73;;
34836;SDS011;21053;50.848;4.652;2024-02-21T16:39:46;129.40;;;118.85;;
34836;SDS011;21053;50.848;4.652;2024-02-21T16:42:14;133.20;;;122.13;;
34836;SDS011;21053;50.848;4.652;2024-02-21T16:44:40;112.97;;;103.85;;
34836;SDS011;21053;50.848;4.652;2024-02-21T16:47:09;120.18;;;110.47;;
34836;SDS011;21053;50.848;4.652;2024-02-21T16:49:36;113.50;;;104.63;;
34836;SDS011;21053;50.848;4.652;2024-02-21T16:57:01;108.43;;;99.70;;
34836;SDS011;21053;50.848;4.652;2024-02-21T17:01:56;97.50;;;89.75;;
34836;SDS011;21053;50.848;4.652;2024-02-21T17:06:53;107.07;;;98.80;;
34836;SDS011;21053;50.848;4.652;2024-02-21T17:09:20;110.68;;;101.97;;